Time;durP1;ratioP1;P1;durP2;ratioP2;P2;SDS_P1;SDS_P2;PMS_P1;PMS_P2;Temp;Humidity;BMP_temperature;BMP_pressure;BME280_temperature;BME280_humidity;BME280_pressure;Samples;Min_cycle;Max_cycle;Signal;HPM_P1;HPM_P2
2022/03/24 00:00:54;;;;;;;5.93;4.50;;;;;;;;;;5012159;28;20636;-80
2022/03/24 00:03:21;;;;;;;5.07;3.50;;;;;;;;;;5015711;28;20700;-80
2022/03/24 00:05:48;;;;;;;4.00;3.60;;;;;;;;;;5015781;28;20200;-80
2022/03/24 00:08:17;;;;;;;5.83;3.73;;;;;;;;;;5015890;28;20290;-80
2022/03/24 00:10:44;;;;;;;6.27;4.23;;;;;;;;;;5015408;28;20294;-80
2022/03/24 00:13:11;;;;;;;7.70;4.20;;;;;;;;;;5015612;28;20239;-80
2022/03/24 00:15:38;;;;;;;5.03;3.90;;;;;;;;;;5015544;28;20759;-80
2022/03/24 00:18:07;;;;;;;5.43;3.50;;;;;;;;;;5015652;28;20239;-80
2022/03/24 00:20:35;;;;;;;5.40;3.93;;;;;;;;;;5015252;28;20746;-80
2022/03/24 00:23:02;;;;;;;7.00;3.90;;;;;;;;;;5015563;28;20202;-81
2022/03/24 00:25:31;;;;;;;4.90;4.43;;;;;;;;;;5015317;28;20210;-80
2022/03/24 00:27:58;;;;;;;5.33;3.70;;;;;;;;;;5014415;28;20286;-80
2022/03/24 00:30:26;;;;;;;4.10;3.70;;;;;;;;;;5014068;28;20669;-80
2022/03/24 00:32:53;;;;;;;4.77;4.27;;;;;;;;;;5015188;28;20226;-80
2022/03/24 00:35:21;;;;;;;4.10;3.70;;;;;;;;;;5015212;28;20246;-80
2022/03/24 00:37:48;;;;;;;5.43;3.67;;;;;;;;;;5015253;28;20668;-80
2022/03/24 00:40:16;;;;;;;3.73;3.10;;;;;;;;;;5014845;28;20207;-80
2022/03/24 00:42:46;;;;;;;5.80;3.77;;;;;;;;;;5015495;28;20199;-80
2022/03/24 00:45:13;;;;;;;4.73;3.77;;;;;;;;;;5014989;28;20204;-80
2022/03/24 00:47:41;;;;;;;5.10;3.87;;;;;;;;;;5015401;28;20254;-80
2022/03/24 00:50:09;;;;;;;4.30;3.90;;;;;;;;;;5014642;28;20239;-80
2022/03/24 00:52:41;;;;;;;8.10;4.27;;;;;;;;;;5014943;28;20810;-80
2022/03/24 00:55:10;;;;;;;3.20;2.83;;;;;;;;;;5014828;28;20540;-81
2022/03/24 00:57:37;;;;;;;10.03;3.70;;;;;;;;;;5014856;28;20200;-81
2022/03/24 01:00:07;;;;;;;6.73;3.60;;;;;;;;;;5014671;28;20290;-80
2022/03/24 01:02:37;;;;;;;4.33;3.70;;;;;;;;;;5015221;28;20231;-80
2022/03/24 01:05:06;;;;;;;4.27;3.17;;;;;;;;;;5014694;28;20188;-79
2022/03/24 01:07:33;;;;;;;8.47;4.10;;;;;;;;;;5014808;28;20204;-80
2022/03/24 01:10:01;;;;;;;5.77;4.33;;;;;;;;;;5014571;28;20282;-79
2022/03/24 01:12:28;;;;;;;5.10;3.93;;;;;;;;;;5014519;28;20227;-81
2022/03/24 01:14:56;;;;;;;5.00;3.53;;;;;;;;;;5013820;28;20746;-80
2022/03/24 01:17:26;;;;;;;4.33;3.50;;;;;;;;;;5014557;28;20759;-80
2022/03/24 01:19:53;;;;;;;5.57;3.63;;;;;;;;;;5014149;28;20199;-80
2022/03/24 01:22:20;;;;;;;4.00;3.23;;;;;;;;;;5014501;28;20377;-80
2022/03/24 01:24:47;;;;;;;5.03;3.47;;;;;;;;;;5014552;28;20636;-81
2022/03/24 01:27:16;;;;;;;4.50;3.73;;;;;;;;;;5014422;28;20290;-80
2022/03/24 01:29:44;;;;;;;9.90;3.93;;;;;;;;;;5014245;28;20203;-80
2022/03/24 01:32:11;;;;;;;5.00;3.50;;;;;;;;;;5014521;28;20306;-80
2022/03/24 01:34:40;;;;;;;7.93;3.77;;;;;;;;;;5014351;28;20199;-80
2022/03/24 01:37:07;;;;;;;8.47;4.10;;;;;;;;;;5014166;28;20560;-80
2022/03/24 01:39:35;;;;;;;5.10;3.83;;;;;;;;;;5014059;28;20634;-80
2022/03/24 01:42:02;;;;;;;3.37;3.07;;;;;;;;;;5014088;28;20239;-80
2022/03/24 01:44:29;;;;;;;8.63;4.60;;;;;;;;;;5013949;28;20290;-80
2022/03/24 01:46:59;;;;;;;6.07;4.23;;;;;;;;;;5013889;28;20294;-80
2022/03/24 01:49:26;;;;;;;4.47;3.63;;;;;;;;;;5013763;28;20210;-80
2022/03/24 01:51:55;;;;;;;4.00;3.67;;;;;;;;;;5013633;28;20223;-80
2022/03/24 01:54:24;;;;;;;9.87;4.00;;;;;;;;;;5013965;28;20302;-80
2022/03/24 01:56:51;;;;;;;6.13;3.37;;;;;;;;;;5013832;28;20295;-80
2022/03/24 01:59:19;;;;;;;3.70;3.30;;;;;;;;;;5013379;28;20257;-77
2022/03/24 02:01:47;;;;;;;6.30;3.47;;;;;;;;;;5014022;28;20200;-79
2022/03/24 02:04:15;;;;;;;35.93;32.30;;;;;;;;;;5013783;28;20199;-78
2022/03/24 02:06:42;;;;;;;8.17;7.10;;;;;;;;;;5013454;28;20751;-78
2022/03/24 02:09:12;;;;;;;15.03;5.97;;;;;;;;;;5013433;28;20290;-78
2022/03/24 02:11:39;;;;;;;10.00;5.13;;;;;;;;;;5013554;28;20235;-78
2022/03/24 02:14:07;;;;;;;7.97;7.17;;;;;;;;;;5013340;28;20239;-78
2022/03/24 02:16:36;;;;;;;9.47;4.70;;;;;;;;;;5013149;28;20231;-79
2022/03/24 02:19:14;;;;;;;6.67;4.33;;;;;;;;;;5013332;28;20587;-79
2022/03/24 02:21:41;;;;;;;5.87;4.60;;;;;;;;;;5013334;28;20202;-79
2022/03/24 02:24:12;;;;;;;8.63;4.27;;;;;;;;;;5013164;28;20350;-79
2022/03/24 02:26:40;;;;;;;8.17;3.60;;;;;;;;;;5012712;28;20249;-79
2022/03/24 02:29:10;;;;;;;5.77;3.83;;;;;;;;;;5013154;28;20195;-79
2022/03/24 02:31:38;;;;;;;6.30;4.23;;;;;;;;;;5013131;28;20230;-79
2022/03/24 02:36:51;;;;;;;8.20;5.77;;;;;;;;;;5013219;28;20234;-79
2022/03/24 02:39:20;;;;;;;7.87;5.30;;;;;;;;;;5012699;28;20290;-79
2022/03/24 02:41:49;;;;;;;7.33;4.10;;;;;;;;;;5013004;28;20290;-79
2022/03/24 02:44:17;;;;;;;5.83;3.87;;;;;;;;;;5012796;28;20219;-80
2022/03/24 02:46:46;;;;;;;16.53;11.80;;;;;;;;;;5013053;28;20203;-80
2022/03/24 02:49:13;;;;;;;10.97;8.13;;;;;;;;;;5012726;28;20658;-80
2022/03/24 02:51:40;;;;;;;12.63;9.40;;;;;;;;;;5013051;28;20310;-80
2022/03/24 02:54:08;;;;;;;13.87;8.70;;;;;;;;;;5012610;28;20290;-79
2022/03/24 02:56:38;;;;;;;18.23;11.30;;;;;;;;;;5012874;28;20208;-80
2022/03/24 02:59:06;;;;;;;12.17;7.40;;;;;;;;;;5012536;28;20695;-80
2022/03/24 03:01:34;;;;;;;8.97;5.63;;;;;;;;;;5011947;28;20257;-80
2022/03/24 03:04:01;;;;;;;7.40;4.73;;;;;;;;;;5031799;28;20213;-80
2022/03/24 03:06:29;;;;;;;10.57;4.83;;;;;;;;;;5032558;28;20332;-80
2022/03/24 03:08:56;;;;;;;6.07;3.73;;;;;;;;;;5031757;28;20198;-80
2022/03/24 03:11:23;;;;;;;9.00;4.37;;;;;;;;;;5031995;28;20293;-80
2022/03/24 03:13:52;;;;;;;10.77;6.47;;;;;;;;;;5031906;28;20197;-81
2022/03/24 03:16:20;;;;;;;9.37;4.97;;;;;;;;;;5031887;28;20202;-80
2022/03/24 03:18:47;;;;;;;4.87;4.37;;;;;;;;;;5031664;28;20205;-80
2022/03/24 03:21:14;;;;;;;7.00;3.93;;;;;;;;;;5032162;28;20206;-80
2022/03/24 03:23:42;;;;;;;10.10;4.03;;;;;;;;;;5031915;28;20861;-80
2022/03/24 03:26:09;;;;;;;7.30;4.77;;;;;;;;;;5031898;28;20203;-78
2022/03/24 03:28:37;;;;;;;6.07;3.57;;;;;;;;;;5031983;28;20245;-80
2022/03/24 03:31:06;;;;;;;10.77;3.87;;;;;;;;;;5031695;28;20238;-80
2022/03/24 03:33:34;;;;;;;10.63;6.90;;;;;;;;;;5031522;28;20315;-81
2022/03/24 03:36:01;;;;;;;8.47;4.90;;;;;;;;;;5031311;28;20195;-80
2022/03/24 03:38:28;;;;;;;7.60;3.73;;;;;;;;;;5031620;28;20760;-80
2022/03/24 03:40:55;;;;;;;8.87;5.20;;;;;;;;;;5031467;28;20199;-81
2022/03/24 03:43:23;;;;;;;6.47;4.07;;;;;;;;;;5031856;28;20628;-81
2022/03/24 03:45:50;;;;;;;5.30;3.90;;;;;;;;;;5031484;28;20199;-80
2022/03/24 03:48:19;;;;;;;5.07;3.70;;;;;;;;;;5031829;28;20587;-81
2022/03/24 03:50:46;;;;;;;5.80;3.47;;;;;;;;;;5031076;28;20294;-81
2022/03/24 03:53:13;;;;;;;5.23;3.57;;;;;;;;;;5031185;28;20772;-81
2022/03/24 03:55:41;;;;;;;4.77;3.03;;;;;;;;;;5030998;28;20198;-81
2022/03/24 03:58:10;;;;;;;12.20;3.73;;;;;;;;;;5030950;28;20205;-81
2022/03/24 04:00:57;;;;;;;7.53;4.50;;;;;;;;;;5030862;28;20289;-80
2022/03/24 04:03:26;;;;;;;5.87;3.93;;;;;;;;;;5031648;28;20185;-81
2022/03/24 04:05:54;;;;;;;4.63;3.40;;;;;;;;;;5030948;28;20285;-80
2022/03/24 04:08:21;;;;;;;4.87;3.73;;;;;;;;;;5031297;28;20209;-81
2022/03/24 04:10:49;;;;;;;5.00;4.07;;;;;;;;;;5031280;28;20653;-81
2022/03/24 04:13:17;;;;;;;11.70;5.30;;;;;;;;;;5031155;28;20703;-79
2022/03/24 04:15:45;;;;;;;6.87;4.37;;;;;;;;;;5030756;28;20285;-79
2022/03/24 04:18:12;;;;;;;5.20;4.70;;;;;;;;;;5031091;28;20710;-80
2022/03/24 04:20:41;;;;;;;5.07;3.97;;;;;;;;;;5029914;28;20582;-78
2022/03/24 04:23:08;;;;;;;5.90;4.67;;;;;;;;;;5030449;28;20639;-78
2022/03/24 04:25:36;;;;;;;8.87;4.00;;;;;;;;;;5030387;28;20667;-78
2022/03/24 04:28:04;;;;;;;7.77;4.33;;;;;;;;;;5030344;28;20261;-78
2022/03/24 04:30:32;;;;;;;6.53;4.43;;;;;;;;;;5030287;28;20203;-78
2022/03/24 04:33:00;;;;;;;8.27;4.47;;;;;;;;;;5030497;28;20313;-78
2022/03/24 04:35:27;;;;;;;3.87;3.37;;;;;;;;;;5029913;28;20260;-79
2022/03/24 04:37:56;;;;;;;5.57;3.27;;;;;;;;;;5030397;28;20203;-78
2022/03/24 04:40:24;;;;;;;6.10;4.60;;;;;;;;;;5030417;28;20706;-78
2022/03/24 04:42:53;;;;;;;12.33;4.73;;;;;;;;;;5030621;28;20226;-78
2022/03/24 04:45:22;;;;;;;9.37;4.37;;;;;;;;;;5030264;28;20210;-78
2022/03/24 04:47:49;;;;;;;23.77;11.30;;;;;;;;;;5029695;28;20205;-78
2022/03/24 04:50:17;;;;;;;13.10;5.53;;;;;;;;;;5033377;28;20199;-78
2022/03/24 04:52:45;;;;;;;31.80;21.03;;;;;;;;;;5033199;28;20223;-78
2022/03/24 04:55:14;;;;;;;8.30;5.50;;;;;;;;;;5033664;28;20281;-78
2022/03/24 04:57:42;;;;;;;7.97;4.90;;;;;;;;;;5033706;28;20199;-78
2022/03/24 05:00:11;;;;;;;6.40;4.47;;;;;;;;;;5032931;28;20198;-80
2022/03/24 05:02:39;;;;;;;6.60;3.70;;;;;;;;;;5031122;28;20347;-79
2022/03/24 05:05:07;;;;;;;6.27;3.73;;;;;;;;;;5032529;28;20230;-80
2022/03/24 05:07:35;;;;;;;6.30;4.10;;;;;;;;;;5033373;28;20199;-80
2022/03/24 05:10:02;;;;;;;5.80;5.20;;;;;;;;;;5033211;28;20203;-80
2022/03/24 05:12:31;;;;;;;11.57;5.13;;;;;;;;;;5032277;28;20274;-82
2022/03/24 05:14:58;;;;;;;8.60;4.80;;;;;;;;;;5027221;28;20225;-82
2022/03/24 05:17:26;;;;;;;9.97;4.97;;;;;;;;;;5032935;28;20257;-80
2022/03/24 05:19:53;;;;;;;9.37;4.97;;;;;;;;;;5033107;28;20203;-80
2022/03/24 05:22:20;;;;;;;6.53;4.47;;;;;;;;;;5033050;28;20206;-80
2022/03/24 05:24:47;;;;;;;8.60;4.60;;;;;;;;;;5033273;28;20260;-80
2022/03/24 05:27:15;;;;;;;6.20;3.87;;;;;;;;;;5032557;28;20199;-80
2022/03/24 05:29:43;;;;;;;11.03;4.40;;;;;;;;;;5032849;28;20663;-80
2022/03/24 05:32:11;;;;;;;7.20;4.20;;;;;;;;;;5032706;28;20195;-80
2022/03/24 05:34:38;;;;;;;9.00;4.13;;;;;;;;;;5032789;28;20194;-80
2022/03/24 05:37:06;;;;;;;7.73;4.03;;;;;;;;;;5032899;28;20206;-80
2022/03/24 05:39:33;;;;;;;5.63;4.27;;;;;;;;;;5033345;28;20210;-79
2022/03/24 05:42:02;;;;;;;8.40;3.80;;;;;;;;;;5033598;28;20203;-80
2022/03/24 05:44:30;;;;;;;7.43;5.00;;;;;;;;;;5033999;28;20198;-80
2022/03/24 05:46:59;;;;;;;8.33;4.33;;;;;;;;;;5034069;28;20217;-79
2022/03/24 05:49:26;;;;;;;8.13;4.33;;;;;;;;;;5033578;28;20195;-79
2022/03/24 05:51:54;;;;;;;9.03;4.27;;;;;;;;;;5033417;28;20195;-79
2022/03/24 05:54:22;;;;;;;6.47;3.87;;;;;;;;;;5033432;28;20230;-80
2022/03/24 05:56:49;;;;;;;7.83;4.20;;;;;;;;;;5033645;28;20194;-81
2022/03/24 05:59:17;;;;;;;7.30;4.70;;;;;;;;;;5033189;28;20675;-80
2022/03/24 06:01:45;;;;;;;6.27;4.73;;;;;;;;;;5033228;28;20202;-80
2022/03/24 06:04:15;;;;;;;11.30;4.90;;;;;;;;;;5033620;28;20610;-80
2022/03/24 06:06:44;;;;;;;6.40;4.43;;;;;;;;;;5033985;28;20274;-81
2022/03/24 06:09:11;;;;;;;11.50;4.83;;;;;;;;;;5032864;28;20198;-80
2022/03/24 06:11:39;;;;;;;8.40;4.97;;;;;;;;;;5033093;28;20201;-80
2022/03/24 06:14:07;;;;;;;16.33;8.90;;;;;;;;;;5033053;28;20622;-80
2022/03/24 06:16:35;;;;;;;12.10;7.73;;;;;;;;;;5033198;28;20204;-80
2022/03/24 06:19:02;;;;;;;14.17;7.37;;;;;;;;;;5032798;28;20195;-80
2022/03/24 06:21:31;;;;;;;9.87;6.00;;;;;;;;;;5033151;28;20694;-80
2022/03/24 06:23:58;;;;;;;9.47;5.03;;;;;;;;;;5032970;28;20218;-80
2022/03/24 06:26:25;;;;;;;7.33;5.23;;;;;;;;;;5033054;28;20203;-81
2022/03/24 06:28:53;;;;;;;9.03;5.27;;;;;;;;;;5032593;28;20242;-80
2022/03/24 06:31:21;;;;;;;11.47;5.13;;;;;;;;;;5032938;28;20228;-80
2022/03/24 06:33:48;;;;;;;15.23;5.30;;;;;;;;;;5032655;28;20284;-81
2022/03/24 06:36:16;;;;;;;6.97;5.47;;;;;;;;;;5032848;28;20194;-81
2022/03/24 06:38:45;;;;;;;9.00;4.70;;;;;;;;;;5032651;28;20257;-81
2022/03/24 06:41:14;;;;;;;7.93;5.37;;;;;;;;;;5032945;28;20606;-80
2022/03/24 06:43:42;;;;;;;7.00;5.37;;;;;;;;;;5032525;28;20201;-81
2022/03/24 06:46:09;;;;;;;9.43;6.17;;;;;;;;;;5029404;28;20203;-81
2022/03/24 06:48:37;;;;;;;11.20;5.17;;;;;;;;;;5030354;28;20209;-81
2022/03/24 06:51:04;;;;;;;7.77;5.80;;;;;;;;;;5032483;28;20199;-81
2022/03/24 06:53:32;;;;;;;14.63;6.20;;;;;;;;;;5032281;28;20714;-81
2022/03/24 06:56:01;;;;;;;5.90;4.80;;;;;;;;;;5032719;28;20202;-81
2022/03/24 06:58:28;;;;;;;11.20;5.70;;;;;;;;;;5032630;28;20687;-81
2022/03/24 07:00:55;;;;;;;16.73;5.87;;;;;;;;;;5031989;28;20289;-81
2022/03/24 07:03:22;;;;;;;9.80;5.27;;;;;;;;;;5032603;28;20679;-81
2022/03/24 07:05:50;;;;;;;11.57;4.97;;;;;;;;;;5032168;28;20203;-81
2022/03/24 07:08:17;;;;;;;7.97;5.57;;;;;;;;;;5032243;28;20198;-81
2022/03/24 07:10:44;;;;;;;10.43;5.03;;;;;;;;;;5031723;28;20203;-81
2022/03/24 07:13:13;;;;;;;12.30;6.00;;;;;;;;;;5031678;28;20645;-81
2022/03/24 07:15:40;;;;;;;10.37;6.10;;;;;;;;;;5032311;28;20195;-81
2022/03/24 07:18:07;;;;;;;11.40;8.00;;;;;;;;;;5032114;28;20206;-81
2022/03/24 07:20:35;;;;;;;7.67;5.50;;;;;;;;;;5031661;28;20203;-81
2022/03/24 07:23:03;;;;;;;13.17;6.37;;;;;;;;;;5032081;28;20748;-81
2022/03/24 07:25:31;;;;;;;16.67;9.37;;;;;;;;;;5032185;28;20229;-80
2022/03/24 07:27:58;;;;;;;11.20;5.57;;;;;;;;;;5032034;28;20225;-81
2022/03/24 07:30:27;;;;;;;7.30;5.30;;;;;;;;;;5031747;28;20603;-81
2022/03/24 07:32:56;;;;;;;10.73;5.80;;;;;;;;;;5031912;28;20202;-81
2022/03/24 07:35:25;;;;;;;9.53;5.37;;;;;;;;;;5031462;28;20687;-81
2022/03/24 07:37:53;;;;;;;10.97;5.07;;;;;;;;;;5031417;28;20260;-81
2022/03/24 07:40:21;;;;;;;9.10;5.43;;;;;;;;;;5029926;28;20206;-81
2022/03/24 07:42:49;;;;;;;10.03;5.30;;;;;;;;;;5031713;28;20559;-81
2022/03/24 07:45:17;;;;;;;7.27;5.07;;;;;;;;;;5031439;28;20203;-81
2022/03/24 07:48:25;;;;;;;9.43;5.87;;;;;;;;;;5032078;28;20199;-81
2022/03/24 07:50:54;;;;;;;10.23;5.73;;;;;;;;;;5031678;28;20238;-81
2022/03/24 07:53:35;;;;;;;8.33;5.00;;;;;;;;;;5031459;28;20233;-81
2022/03/24 07:56:02;;;;;;;7.23;5.63;;;;;;;;;;5031985;28;20600;-81
2022/03/24 07:58:30;;;;;;;7.20;5.23;;;;;;;;;;5031899;28;20657;-81
2022/03/24 08:00:59;;;;;;;12.40;5.87;;;;;;;;;;5031574;28;20210;-80
2022/03/24 08:03:27;;;;;;;8.23;4.80;;;;;;;;;;5031336;28;20669;-81
2022/03/24 08:05:56;;;;;;;10.87;6.37;;;;;;;;;;5031495;28;20237;-81
2022/03/24 08:08:23;;;;;;;15.53;6.13;;;;;;;;;;5031773;28;20205;-82
2022/03/24 08:10:51;;;;;;;9.90;5.97;;;;;;;;;;5031465;28;20198;-80
2022/03/24 08:13:19;;;;;;;10.27;6.37;;;;;;;;;;5031404;28;20281;-81
2022/03/24 08:15:47;;;;;;;10.37;6.57;;;;;;;;;;5031121;28;20199;-81
2022/03/24 08:18:15;;;;;;;9.93;6.13;;;;;;;;;;5031704;28;20205;-81
2022/03/24 08:20:43;;;;;;;13.37;7.00;;;;;;;;;;5031356;28;20203;-81
2022/03/24 08:23:13;;;;;;;9.20;7.07;;;;;;;;;;5031824;28;20233;-80
2022/03/24 08:25:42;;;;;;;9.07;6.40;;;;;;;;;;5035195;28;20195;-81
2022/03/24 08:28:10;;;;;;;6.77;6.00;;;;;;;;;;5035591;28;20281;-81
2022/03/24 08:30:38;;;;;;;12.47;7.10;;;;;;;;;;5034828;28;20210;-81
2022/03/24 08:33:06;;;;;;;10.47;7.77;;;;;;;;;;5035479;28;20198;-81
2022/03/24 08:35:33;;;;;;;9.23;6.30;;;;;;;;;;5034995;28;20249;-81
2022/03/24 08:38:01;;;;;;;7.00;6.30;;;;;;;;;;5035184;28;20695;-81
2022/03/24 08:40:29;;;;;;;8.20;7.10;;;;;;;;;;5034893;28;20747;-81
2022/03/24 08:42:57;;;;;;;10.23;7.23;;;;;;;;;;5034831;28;20213;-81
2022/03/24 08:45:24;;;;;;;10.80;7.33;;;;;;;;;;5034832;28;20199;-81
2022/03/24 08:47:53;;;;;;;8.97;6.50;;;;;;;;;;5034950;28;20203;-81
2022/03/24 08:50:21;;;;;;;10.30;7.27;;;;;;;;;;5034672;28;20599;-81
2022/03/24 08:52:49;;;;;;;13.40;7.50;;;;;;;;;;5034696;28;20244;-81
2022/03/24 08:55:17;;;;;;;13.57;8.83;;;;;;;;;;5034576;28;20229;-81
2022/03/24 08:57:46;;;;;;;10.70;8.43;;;;;;;;;;5035028;28;20225;-81
2022/03/24 09:00:16;;;;;;;8.97;7.77;;;;;;;;;;5034496;28;20198;-81
2022/03/24 09:02:45;;;;;;;9.27;8.00;;;;;;;;;;5034864;28;20592;-82
2022/03/24 09:05:13;;;;;;;10.77;8.03;;;;;;;;;;5034364;28;20260;-82
2022/03/24 09:07:41;;;;;;;10.67;7.03;;;;;;;;;;5034595;28;20341;-82
2022/03/24 09:10:10;;;;;;;12.73;7.60;;;;;;;;;;5034293;28;20200;-82
2022/03/24 09:12:39;;;;;;;15.13;8.33;;;;;;;;;;5034243;28;20683;-82
2022/03/24 09:15:09;;;;;;;9.27;7.53;;;;;;;;;;5034128;28;20651;-82
2022/03/24 09:17:39;;;;;;;11.63;8.07;;;;;;;;;;5034775;28;20639;-82
2022/03/24 09:20:09;;;;;;;9.30;7.70;;;;;;;;;;5034135;28;20227;-81
2022/03/24 09:22:37;;;;;;;9.83;8.30;;;;;;;;;;5034604;28;20244;-82
2022/03/24 09:25:05;;;;;;;11.80;8.33;;;;;;;;;;5034006;28;20203;-82
2022/03/24 09:27:32;;;;;;;10.33;7.47;;;;;;;;;;5034219;28;20212;-82
2022/03/24 09:30:00;;;;;;;9.43;7.63;;;;;;;;;;5034010;28;20758;-82
2022/03/24 09:32:28;;;;;;;10.30;8.53;;;;;;;;;;5033919;28;20202;-82
2022/03/24 09:34:56;;;;;;;14.93;8.43;;;;;;;;;;5033260;28;20225;-82
2022/03/24 09:37:23;;;;;;;12.77;8.23;;;;;;;;;;5034005;28;20694;-81
2022/03/24 09:39:51;;;;;;;13.37;8.50;;;;;;;;;;5033590;28;20198;-82
2022/03/24 09:42:21;;;;;;;14.27;11.00;;;;;;;;;;5033873;28;20212;-82
2022/03/24 09:44:49;;;;;;;9.57;8.00;;;;;;;;;;5033656;28;20201;-82
2022/03/24 09:47:16;;;;;;;9.43;8.53;;;;;;;;;;5033521;28;20203;-81
2022/03/24 09:49:45;;;;;;;10.87;9.47;;;;;;;;;;5033924;28;20202;-82
2022/03/24 09:52:13;;;;;;;12.33;8.47;;;;;;;;;;5033807;28;20295;-82
2022/03/24 09:54:42;;;;;;;12.83;8.53;;;;;;;;;;5033393;28;20269;-82
2022/03/24 09:57:10;;;;;;;10.07;7.47;;;;;;;;;;5033487;28;20676;-81
2022/03/24 09:59:38;;;;;;;10.57;9.13;;;;;;;;;;5033417;28;20198;-81
2022/03/24 10:02:07;;;;;;;11.67;8.23;;;;;;;;;;5033522;28;20261;-81
2022/03/24 10:04:48;;;;;;;11.37;8.20;;;;;;;;;;5033401;28;20205;-81
2022/03/24 10:07:15;;;;;;;11.37;7.47;;;;;;;;;;5033444;28;20194;-81
2022/03/24 10:09:44;;;;;;;12.10;8.17;;;;;;;;;;5033372;28;20206;-81
2022/03/24 10:12:19;;;;;;;19.13;8.60;;;;;;;;;;5033380;28;20265;-81
2022/03/24 10:14:46;;;;;;;8.87;7.97;;;;;;;;;;5033142;28;20211;-81
2022/03/24 10:17:13;;;;;;;10.97;6.73;;;;;;;;;;5033601;28;20583;-81
2022/03/24 10:19:58;;;;;;;8.13;6.70;;;;;;;;;;5033002;28;20229;-81
2022/03/24 10:22:26;;;;;;;10.27;6.67;;;;;;;;;;5033585;28;20632;-81
2022/03/24 10:24:54;;;;;;;8.87;6.37;;;;;;;;;;5032884;28;20205;-81
2022/03/24 10:27:22;;;;;;;7.07;6.37;;;;;;;;;;5033110;28;20205;-81
2022/03/24 10:29:54;;;;;;;11.30;7.27;;;;;;;;;;5032600;28;20202;-81
2022/03/24 10:32:22;;;;;;;8.30;6.87;;;;;;;;;;5033319;28;20190;-81
2022/03/24 10:34:50;;;;;;;11.07;7.87;;;;;;;;;;5033062;28;20670;-81
2022/03/24 10:37:21;;;;;;;9.33;6.93;;;;;;;;;;5032929;28;20289;-82
2022/03/24 10:40:04;;;;;;;7.30;6.60;;;;;;;;;;5032454;28;20213;-81
2022/03/24 10:42:32;;;;;;;9.57;7.00;;;;;;;;;;5032868;28;20186;-82
2022/03/24 10:45:10;;;;;;;7.97;7.00;;;;;;;;;;5032557;28;20560;-81
2022/03/24 10:47:52;;;;;;;8.90;6.83;;;;;;;;;;5031921;28;20221;-81
2022/03/24 10:50:41;;;;;;;8.43;6.73;;;;;;;;;;5032529;28;20191;-82
2022/03/24 10:53:12;;;;;;;8.20;5.60;;;;;;;;;;5032726;28;20183;-81
2022/03/24 10:56:01;;;;;;;7.33;6.10;;;;;;;;;;5032653;28;20206;-81
2022/03/24 10:58:33;;;;;;;9.37;6.43;;;;;;;;;;5032484;28;20194;-81
2022/03/24 11:01:02;;;;;;;11.50;8.20;;;;;;;;;;5032244;28;20187;-81
2022/03/24 11:03:29;;;;;;;9.03;6.80;;;;;;;;;;5032620;28;20199;-81
2022/03/24 11:06:08;;;;;;;10.53;6.10;;;;;;;;;;5032222;28;20202;-81
2022/03/24 11:08:36;;;;;;;8.33;6.27;;;;;;;;;;5032540;28;20229;-81
2022/03/24 11:11:07;;;;;;;11.23;6.57;;;;;;;;;;5031961;28;20207;-81
2022/03/24 11:13:43;;;;;;;11.03;6.97;;;;;;;;;;5032118;28;20667;-81
2022/03/24 11:16:11;;;;;;;8.30;6.20;;;;;;;;;;5032445;28;20635;-81
2022/03/24 11:18:39;;;;;;;10.60;7.07;;;;;;;;;;5032020;28;20663;-81
2022/03/24 11:21:11;;;;;;;10.80;8.83;;;;;;;;;;5031857;28;20582;-81
2022/03/24 11:23:40;;;;;;;11.87;9.93;;;;;;;;;;5032026;28;20186;-81
2022/03/24 11:26:09;;;;;;;37.93;27.97;;;;;;;;;;5032304;28;20194;-81
2022/03/24 11:28:37;;;;;;;9.67;7.27;;;;;;;;;;5031911;28;20293;-82
2022/03/24 11:31:07;;;;;;;10.60;6.53;;;;;;;;;;5031965;28;20582;-81
2022/03/24 11:33:45;;;;;;;10.43;6.27;;;;;;;;;;5031641;28;20289;-81
2022/03/24 11:36:13;;;;;;;7.63;6.00;;;;;;;;;;5031979;28;20567;-81
2022/03/24 11:38:43;;;;;;;9.10;6.77;;;;;;;;;;5031748;28;20199;-82
2022/03/24 11:41:17;;;;;;;8.60;6.33;;;;;;;;;;5031899;28;20199;-81
2022/03/24 11:43:51;;;;;;;12.70;5.80;;;;;;;;;;5031695;28;20241;-82
2022/03/24 11:46:29;;;;;;;10.30;6.17;;;;;;;;;;5032123;28;20264;-81
2022/03/24 11:49:24;;;;;;;11.93;6.70;;;;;;;;;;5031705;28;20262;-81
2022/03/24 11:52:12;;;;;;;8.67;6.40;;;;;;;;;;5007612;28;20714;-81
2022/03/24 11:54:50;;;;;;;7.73;6.20;;;;;;;;;;5031492;28;20582;-81
2022/03/24 11:57:29;;;;;;;10.00;6.70;;;;;;;;;;5032251;28;20187;-81
2022/03/24 12:00:41;;;;;;;9.97;5.87;;;;;;;;;;5035905;28;20202;-81
2022/03/24 12:03:41;;;;;;;6.63;5.57;;;;;;;;;;5011756;28;20199;-82
2022/03/24 12:06:08;;;;;;;6.27;5.23;;;;;;;;;;5035640;28;20276;-81
2022/03/24 12:08:45;;;;;;;13.40;6.77;;;;;;;;;;5035511;28;20202;-81
2022/03/24 12:11:53;;;;;;;8.10;5.53;;;;;;;;;;5035422;28;20663;-81
2022/03/24 12:14:27;;;;;;;7.33;5.90;;;;;;;;;;5032186;28;20202;-81
2022/03/24 12:16:55;;;;;;;10.03;5.37;;;;;;;;;;5035492;28;20698;-81
2022/03/24 12:19:42;;;;;;;6.30;5.23;;;;;;;;;;5035070;28;20671;-81
2022/03/24 12:22:43;;;;;;;9.10;5.63;;;;;;;;;;5035859;28;20187;-81
2022/03/24 12:25:28;;;;;;;7.13;5.30;;;;;;;;;;4993696;28;20208;-81
2022/03/24 12:28:00;;;;;;;9.87;6.07;;;;;;;;;;5031946;28;20653;-81
2022/03/24 12:30:42;;;;;;;7.70;5.47;;;;;;;;;;5034874;28;20183;-81
2022/03/24 12:33:12;;;;;;;7.50;5.57;;;;;;;;;;5035671;28;20191;-81
2022/03/24 12:35:44;;;;;;;10.87;5.80;;;;;;;;;;5034933;28;20289;-82
2022/03/24 12:38:43;;;;;;;6.77;6.00;;;;;;;;;;5035152;28;20187;-81
2022/03/24 12:41:26;;;;;;;8.17;6.17;;;;;;;;;;5012534;28;20256;-81
2022/03/24 12:44:05;;;;;;;8.60;6.60;;;;;;;;;;5034871;28;20699;-81
2022/03/24 12:46:39;;;;;;;8.27;6.50;;;;;;;;;;5034953;28;20215;-81
2022/03/24 12:49:26;;;;;;;8.90;5.90;;;;;;;;;;5034825;28;20186;-81
2022/03/24 12:51:54;;;;;;;9.17;5.37;;;;;;;;;;5034670;28;20191;-81
2022/03/24 12:54:22;;;;;;;7.23;5.97;;;;;;;;;;5034939;28;20213;-81
2022/03/24 12:56:50;;;;;;;5.63;4.87;;;;;;;;;;5035099;28;20195;-81
2022/03/24 12:59:19;;;;;;;7.60;5.10;;;;;;;;;;5034358;28;20211;-81
2022/03/24 13:01:50;;;;;;;5.80;5.20;;;;;;;;;;5035018;28;20694;-81
2022/03/24 13:04:18;;;;;;;8.53;5.30;;;;;;;;;;5034417;28;20671;-81
2022/03/24 13:06:47;;;;;;;7.57;5.77;;;;;;;;;;5034586;28;20752;-81
2022/03/24 13:09:19;;;;;;;5.37;4.87;;;;;;;;;;5033202;28;20209;-81
2022/03/24 13:12:02;;;;;;;6.20;4.90;;;;;;;;;;5034545;28;20307;-81
2022/03/24 13:14:31;;;;;;;9.40;6.67;;;;;;;;;;5034304;28;20656;-82
2022/03/24 13:17:07;;;;;;;7.33;4.20;;;;;;;;;;5034423;28;20206;-81
2022/03/24 13:19:35;;;;;;;6.90;5.03;;;;;;;;;;5034205;28;20191;-81
2022/03/24 13:22:19;;;;;;;6.43;4.50;;;;;;;;;;5034457;28;20230;-81
2022/03/24 13:25:01;;;;;;;7.43;5.00;;;;;;;;;;5034071;28;20198;-81
2022/03/24 13:27:29;;;;;;;7.80;5.27;;;;;;;;;;5034249;28;20281;-82
2022/03/24 13:29:57;;;;;;;5.83;5.27;;;;;;;;;;5034005;28;20534;-81
2022/03/24 13:32:27;;;;;;;8.73;5.27;;;;;;;;;;5034030;28;20200;-81
2022/03/24 13:34:58;;;;;;;5.70;5.20;;;;;;;;;;5033940;28;20663;-81
2022/03/24 13:37:26;;;;;;;7.03;4.40;;;;;;;;;;5034360;28;20579;-82
2022/03/24 13:39:55;;;;;;;6.83;4.77;;;;;;;;;;5034094;28;20583;-82
2022/03/24 13:42:24;;;;;;;9.50;5.07;;;;;;;;;;5033627;28;20195;-82
2022/03/24 13:44:52;;;;;;;7.50;5.63;;;;;;;;;;5033687;28;20281;-82
2022/03/24 13:47:23;;;;;;;10.10;4.97;;;;;;;;;;5034214;28;20195;-81
2022/03/24 13:49:57;;;;;;;7.03;4.83;;;;;;;;;;5033465;28;20222;-81
2022/03/24 13:52:38;;;;;;;6.13;4.43;;;;;;;;;;5033281;28;20690;-81
2022/03/24 13:55:08;;;;;;;6.13;3.97;;;;;;;;;;5011615;28;20195;-81
2022/03/24 13:57:45;;;;;;;4.37;3.97;;;;;;;;;;5011638;28;20215;-81
2022/03/24 14:00:13;;;;;;;10.90;4.70;;;;;;;;;;5011596;28;20192;-81
2022/03/24 14:02:42;;;;;;;5.07;4.50;;;;;;;;;;5032378;28;20203;-81
2022/03/24 14:05:13;;;;;;;5.37;4.63;;;;;;;;;;5033187;28;20218;-81
2022/03/24 14:07:59;;;;;;;5.37;4.83;;;;;;;;;;5033260;28;20207;-81
2022/03/24 14:10:44;;;;;;;9.60;4.90;;;;;;;;;;5020170;28;20655;-81
2022/03/24 14:13:15;;;;;;;6.97;4.73;;;;;;;;;;5013824;28;20707;-81
2022/03/24 14:15:43;;;;;;;5.30;4.80;;;;;;;;;;5013134;28;20199;-81
2022/03/24 14:18:14;;;;;;;5.83;4.97;;;;;;;;;;5025690;28;20221;-81
2022/03/24 14:20:43;;;;;;;6.30;5.37;;;;;;;;;;5032964;28;20203;-81
2022/03/24 14:23:11;;;;;;;6.27;4.93;;;;;;;;;;5033217;28;20672;-81
2022/03/24 14:25:39;;;;;;;7.37;5.97;;;;;;;;;;5030615;28;20228;-81
2022/03/24 14:28:06;;;;;;;6.33;4.60;;;;;;;;;;5029246;28;20683;-81
2022/03/24 14:30:34;;;;;;;7.20;4.27;;;;;;;;;;5032853;28;20199;-81
2022/03/24 14:33:02;;;;;;;4.50;4.10;;;;;;;;;;5033178;28;20198;-81
2022/03/24 14:35:30;;;;;;;5.13;4.63;;;;;;;;;;5033062;28;20297;-81
2022/03/24 14:37:59;;;;;;;5.20;4.73;;;;;;;;;;5032905;28;20262;-81
2022/03/24 14:40:32;;;;;;;5.03;4.47;;;;;;;;;;5032983;28;20253;-81
2022/03/24 14:43:00;;;;;;;6.00;4.83;;;;;;;;;;5032539;28;20203;-81
2022/03/24 14:45:27;;;;;;;4.40;3.87;;;;;;;;;;5032512;28;20301;-81
2022/03/24 14:47:54;;;;;;;4.20;3.80;;;;;;;;;;5032947;28;20206;-81
2022/03/24 14:50:22;;;;;;;4.00;3.43;;;;;;;;;;5032822;28;20199;-81
2022/03/24 14:52:50;;;;;;;5.93;4.10;;;;;;;;;;5032556;28;20671;-81
2022/03/24 14:55:18;;;;;;;6.60;4.03;;;;;;;;;;5032129;28;20203;-81
2022/03/24 14:57:46;;;;;;;4.13;3.73;;;;;;;;;;5032511;28;20202;-81